createdAt,value
2019-01-14T00:00:26.180Z,9.55
2019-01-14T00:01:36.277Z,9.52
2019-01-14T00:02:46.191Z,9.48
2019-01-14T00:03:56.270Z,9.53
2019-01-14T00:05:06.741Z,9.5
2019-01-14T00:06:16.842Z,9.55
2019-01-14T00:07:26.642Z,9.6
2019-01-14T00:08:36.553Z,9.55
2019-01-14T00:09:46.677Z,9.57
2019-01-14T00:10:56.753Z,9.66
2019-01-14T00:12:06.812Z,9.56
2019-01-14T00:13:16.920Z,9.6
2019-01-14T00:14:27.015Z,9.57
2019-01-14T00:15:37.069Z,9.56
2019-01-14T00:16:47.144Z,9.56
2019-01-14T00:17:57.466Z,9.57
2019-01-14T00:19:07.525Z,9.57
2019-01-14T00:20:17.656Z,9.62
2019-01-14T00:21:27.768Z,9.6
2019-01-14T00:22:37.324Z,9.57
2019-01-14T00:23:47.437Z,9.55
2019-01-14T00:24:57.699Z,9.56
2019-01-14T00:26:07.679Z,9.55
2019-01-14T00:27:18.712Z,9.56
2019-01-14T00:28:28.826Z,9.56
2019-01-14T00:29:38.668Z,9.66
2019-01-14T00:30:48.739Z,9.62
2019-01-14T00:31:58.803Z,9.63
2019-01-14T00:33:08.607Z,9.63
2019-01-14T00:34:18.706Z,9.7
2019-01-14T00:35:28.779Z,9.71
2019-01-14T00:36:38.597Z,9.75
2019-01-14T00:37:48.754Z,9.7
2019-01-14T00:38:58.828Z,9.72
2019-01-14T00:40:08.897Z,9.81
2019-01-14T00:41:18.707Z,9.72
2019-01-14T00:42:28.854Z,9.85
2019-01-14T00:43:38.954Z,9.84
2019-01-14T00:44:49.023Z,9.82
2019-01-14T00:45:59.103Z,9.84
2019-01-14T00:47:09.173Z,9.96
2019-01-14T00:48:19.228Z,10
2019-01-14T00:49:29.304Z,10
2019-01-14T00:50:39.381Z,10.05
2019-01-14T00:51:49.449Z,10.11
2019-01-14T00:52:59.514Z,10.1
2019-01-14T00:54:10.677Z,10.14
2019-01-14T00:55:20.576Z,10.15
2019-01-14T00:56:30.635Z,10.25
2019-01-14T00:57:40.437Z,10.2
2019-01-14T00:58:50.290Z,10.23
2019-01-14T01:00:03.516Z,10.29
2019-01-14T01:01:13.711Z,10.14
2019-01-14T01:02:23.759Z,10.25
2019-01-14T01:03:33.549Z,10.2
2019-01-14T01:04:43.593Z,10.29
2019-01-14T01:05:53.889Z,10.21
2019-01-14T01:07:04.273Z,10.33
2019-01-14T01:08:14.382Z,10.35
2019-01-14T01:09:24.432Z,10.28
2019-01-14T01:10:34.508Z,10.29
2019-01-14T01:11:44.333Z,10.23
2019-01-14T01:12:54.401Z,10.23
2019-01-14T01:14:04.470Z,10.18
2019-01-14T01:15:14.529Z,10.2
2019-01-14T01:16:24.330Z,10.23
2019-01-14T01:17:34.396Z,10.13
2019-01-14T01:18:44.608Z,10.14
2019-01-14T01:19:54.670Z,10.13
2019-01-14T01:21:04.752Z,10.11
2019-01-14T01:22:14.822Z,10.14
2019-01-14T01:23:24.722Z,10.11
2019-01-14T01:24:34.845Z,10.07
2019-01-14T01:25:44.950Z,10.11
2019-01-14T01:26:54.737Z,10.05
2019-01-14T01:28:04.551Z,10.05
2019-01-14T01:29:14.604Z,9.96
2019-01-14T01:30:24.706Z,9.99
2019-01-14T01:31:34.784Z,9.93
2019-01-14T01:32:44.858Z,9.89
2019-01-14T01:33:54.666Z,9.81
2019-01-14T01:35:04.451Z,9.82
2019-01-14T01:36:14.298Z,9.88
2019-01-14T01:37:24.372Z,9.85
2019-01-14T01:38:34.439Z,9.82
2019-01-14T01:39:44.056Z,9.89
2019-01-14T01:40:54.132Z,9.82
2019-01-14T01:42:03.990Z,9.84
2019-01-14T01:43:14.052Z,9.8
2019-01-14T01:44:24.124Z,9.89
2019-01-14T01:45:33.921Z,9.84
2019-01-14T01:46:44.117Z,9.85
2019-01-14T01:47:54.201Z,9.77
2019-01-14T01:49:05.658Z,9.77
2019-01-14T01:50:15.968Z,9.75
2019-01-14T01:51:26.237Z,9.8
2019-01-14T01:52:36.039Z,9.75
2019-01-14T01:53:46.167Z,9.77
2019-01-14T01:54:56.229Z,9.67
2019-01-14T01:56:06.304Z,9.63
2019-01-14T01:57:17.485Z,9.64
2019-01-14T01:58:27.287Z,9.7
2019-01-14T01:59:37.402Z,9.66
2019-01-14T02:00:47.200Z,9.64
2019-01-14T02:01:57.271Z,9.67
2019-01-14T02:03:07.386Z,9.6
2019-01-14T02:04:17.455Z,9.59
2019-01-14T02:05:27.534Z,9.59
2019-01-14T02:06:43.703Z,9.59
2019-01-14T02:07:53.765Z,9.56
2019-01-14T02:09:05.766Z,9.5
2019-01-14T02:10:15.824Z,9.48
2019-01-14T02:11:25.892Z,9.47
2019-01-14T02:12:35.958Z,9.42
2019-01-14T02:13:45.760Z,9.41
2019-01-14T02:14:55.856Z,9.35
2019-01-14T02:16:05.904Z,9.24
2019-01-14T02:17:16.022Z,9.3
2019-01-14T02:18:26.581Z,9.29
2019-01-14T02:19:36.659Z,9.27
2019-01-14T02:20:46.724Z,9.23
2019-01-14T02:21:56.527Z,9.2
2019-01-14T02:23:06.634Z,9.17
2019-01-14T02:24:16.968Z,9.14
2019-01-14T02:25:27.017Z,9.08
2019-01-14T02:26:36.821Z,9.14
2019-01-14T02:27:46.645Z,9.12
2019-01-14T02:28:56.698Z,9.17
2019-01-14T02:30:08.041Z,9.16
2019-01-14T02:31:18.116Z,9.14
2019-01-14T02:32:27.930Z,9.2
2019-01-14T02:33:38.017Z,9.24
2019-01-14T02:34:48.136Z,9.24
2019-01-14T02:35:58.250Z,9.24
2019-01-14T02:37:08.310Z,9.29
2019-01-14T02:38:18.406Z,9.23
2019-01-14T02:39:28.455Z,9.17
2019-01-14T02:40:38.525Z,9.26
2019-01-14T02:41:48.336Z,9.21
2019-01-14T02:42:57.916Z,9.27
2019-01-14T02:44:10.683Z,9.29
2019-01-14T02:45:20.747Z,9.23
2019-01-14T02:46:30.804Z,9.2
2019-01-14T02:47:41.333Z,9.23
2019-01-14T02:48:51.150Z,9.26
2019-01-14T02:50:02.570Z,9.19
2019-01-14T02:51:12.391Z,9.24
2019-01-14T02:52:22.600Z,9.19
2019-01-14T02:53:32.672Z,9.2
2019-01-14T02:54:42.745Z,9.27
2019-01-14T02:55:52.861Z,9.19
2019-01-14T02:57:04.885Z,9.21
2019-01-14T02:58:14.951Z,9.2
2019-01-14T02:59:25.021Z,9.27
2019-01-14T03:00:35.084Z,9.27
2019-01-14T03:01:44.912Z,9.21
2019-01-14T03:02:54.726Z,9.23
2019-01-14T03:34:41.876Z,7.56
2019-01-14T03:35:51.931Z,7.49
2019-01-14T03:37:07.951Z,7.59
2019-01-14T03:38:17.822Z,7.45
2019-01-14T03:39:27.896Z,7.55
2019-01-14T03:40:38.006Z,7.63
2019-01-14T03:41:47.798Z,7.7
2019-01-14T03:42:57.836Z,7.78
2019-01-14T03:44:07.873Z,7.86
2019-01-14T03:45:17.929Z,7.89
2019-01-14T03:46:28.110Z,8.06
2019-01-14T03:47:38.183Z,8.25
2019-01-14T03:48:48.014Z,8.28
2019-01-14T03:49:58.064Z,8.36
2019-01-14T03:51:08.147Z,8.5
2019-01-14T03:52:18.231Z,8.58
2019-01-14T03:53:28.306Z,8.58
2019-01-14T03:54:38.369Z,8.71
2019-01-14T03:55:48.448Z,8.82
2019-01-14T03:56:57.986Z,8.77
2019-01-14T03:58:07.787Z,8.87
2019-01-14T03:59:17.590Z,8.8
2019-01-14T04:00:27.665Z,8.95
2019-01-14T04:01:37.241Z,8.89
2019-01-14T04:02:47.312Z,8.98
2019-01-14T04:03:57.158Z,9.12
2019-01-14T04:05:06.975Z,9.17
2019-01-14T04:06:17.031Z,9.17
2019-01-14T04:07:26.850Z,9.21
2019-01-14T04:08:36.771Z,9.19
2019-01-14T04:09:46.890Z,9.32
2019-01-14T04:10:56.955Z,9.27
2019-01-14T04:12:07.100Z,9.32
2019-01-14T04:13:17.162Z,9.3
2019-01-14T04:14:27.541Z,9.32
2019-01-14T04:15:37.353Z,9.35
2019-01-14T04:16:47.740Z,9.32
2019-01-14T04:17:57.548Z,9.44
2019-01-14T04:19:07.877Z,9.44
2019-01-14T04:20:17.712Z,9.53
2019-01-14T04:21:27.779Z,9.42
2019-01-14T04:22:37.575Z,9.47
2019-01-14T04:23:47.645Z,9.44
2019-01-14T04:24:57.459Z,9.47
2019-01-14T04:26:07.404Z,9.42
2019-01-14T04:27:17.538Z,9.38
2019-01-14T04:28:27.904Z,9.47
2019-01-14T04:29:38.074Z,9.47
2019-01-14T04:30:47.871Z,9.42
2019-01-14T04:31:57.933Z,9.42
2019-01-14T04:33:08.010Z,9.39
2019-01-14T04:34:18.323Z,9.47
2019-01-14T04:35:28.395Z,9.39
2019-01-14T04:36:38.450Z,9.39
2019-01-14T04:37:48.499Z,9.39
2019-01-14T04:38:58.594Z,9.38
2019-01-14T04:40:11.190Z,9.41
2019-01-14T04:41:21.271Z,9.39
2019-01-14T04:42:31.369Z,9.34
2019-01-14T04:43:41.465Z,9.3
2019-01-14T04:44:51.529Z,9.39
2019-01-14T04:46:01.354Z,9.38
2019-01-14T04:47:11.517Z,9.41
2019-01-14T04:48:21.589Z,9.52
2019-01-14T04:49:32.671Z,9.47
2019-01-14T04:50:42.220Z,9.45
2019-01-14T04:51:52.265Z,9.47
2019-01-14T04:53:02.364Z,9.5
2019-01-14T04:54:12.173Z,9.53
2019-01-14T04:55:21.995Z,9.6
2019-01-14T04:56:32.068Z,9.55
2019-01-14T04:57:42.248Z,9.57
2019-01-14T04:58:52.312Z,9.56
2019-01-14T05:00:02.667Z,9.56
2019-01-14T05:01:13.052Z,9.57
2019-01-14T05:02:23.124Z,9.55
2019-01-14T05:03:32.941Z,9.63
2019-01-14T05:04:42.493Z,9.56
2019-01-14T05:05:52.563Z,9.55
2019-01-14T05:07:05.747Z,9.59
2019-01-14T05:08:15.822Z,9.63
2019-01-14T05:09:27.228Z,9.6
2019-01-14T05:10:37.708Z,9.6
2019-01-14T05:11:47.967Z,9.64
2019-01-14T05:12:58.066Z,9.63
2019-01-14T05:14:08.192Z,9.66
2019-01-14T05:15:18.435Z,9.67
2019-01-14T05:16:28.235Z,9.62
2019-01-14T05:17:38.368Z,9.7
2019-01-14T05:18:47.926Z,9.74
2019-01-14T05:19:57.991Z,9.66
2019-01-14T05:21:08.470Z,9.72
2019-01-14T05:22:18.532Z,9.62
2019-01-14T05:23:28.093Z,9.6
2019-01-14T05:24:38.189Z,9.62
2019-01-14T05:25:48.362Z,9.67
2019-01-14T05:26:58.431Z,9.63
2019-01-14T05:28:08.481Z,9.6
2019-01-14T05:29:18.290Z,9.6
2019-01-14T05:30:28.161Z,9.56
2019-01-14T05:31:38.222Z,9.57
2019-01-14T05:32:49.749Z,9.6
2019-01-14T05:33:59.870Z,9.63
2019-01-14T05:35:10.832Z,9.57
2019-01-14T05:36:20.688Z,9.64
2019-01-14T05:37:37.153Z,9.59
2019-01-14T05:38:47.391Z,9.59
2019-01-14T05:39:57.270Z,9.6
2019-01-14T05:41:08.904Z,9.6
2019-01-14T05:42:18.977Z,9.64
2019-01-14T05:43:29.044Z,9.56
2019-01-14T05:44:39.127Z,9.55
2019-01-14T05:45:49.200Z,9.57
2019-01-14T05:46:59.280Z,9.63
2019-01-14T05:48:09.970Z,9.5
2019-01-14T05:49:20.021Z,9.53
2019-01-14T05:50:30.183Z,9.48
2019-01-14T05:51:39.983Z,9.47
2019-01-14T05:52:49.787Z,9.47
2019-01-14T05:53:59.830Z,9.41
2019-01-14T05:55:10.022Z,9.47
2019-01-14T05:56:20.159Z,9.47
2019-01-14T05:57:30.216Z,9.44
2019-01-14T05:58:40.327Z,9.47
2019-01-14T05:59:50.392Z,9.42
2019-01-14T06:01:00.349Z,9.52
2019-01-14T06:02:10.577Z,9.5
2019-01-14T06:03:20.386Z,9.48
2019-01-14T06:04:30.451Z,9.48
2019-01-14T06:05:40.735Z,9.59
2019-01-14T06:06:50.544Z,9.56
2019-01-14T06:08:03.222Z,9.52
2019-01-14T06:09:13.271Z,9.63
2019-01-14T06:10:23.331Z,9.63
2019-01-14T06:11:33.412Z,9.56
2019-01-14T06:12:43.587Z,9.6
2019-01-14T06:13:53.923Z,9.55
2019-01-14T06:15:03.985Z,9.56
2019-01-14T06:16:13.818Z,9.57
2019-01-14T06:17:23.893Z,9.56
2019-01-14T06:18:33.457Z,9.59
2019-01-14T06:19:43.528Z,9.57
2019-01-14T06:20:53.067Z,9.6
2019-01-14T06:22:03.134Z,9.7
2019-01-14T06:23:13.203Z,9.71
2019-01-14T06:24:23.311Z,9.62
2019-01-14T06:25:33.119Z,9.57
2019-01-14T06:26:43.436Z,9.09
2019-01-14T06:27:53.221Z,8.58
2019-01-14T06:29:03.885Z,8.13
2019-01-14T06:30:13.931Z,7.73
2019-01-14T06:31:23.980Z,7.27
2019-01-14T06:32:34.290Z,7.13
2019-01-14T06:33:44.584Z,6.82
2019-01-14T06:34:54.660Z,6.64
2019-01-14T06:36:04.776Z,6.6
2019-01-14T06:37:14.593Z,6.51
2019-01-14T06:38:24.652Z,6.51
2019-01-14T06:39:34.797Z,6.34
2019-01-14T06:40:44.599Z,6.44
2019-01-14T06:41:54.656Z,6.29
2019-01-14T06:43:04.472Z,6.26
2019-01-14T06:44:14.540Z,6.18
2019-01-14T06:45:24.592Z,6.2
2019-01-14T06:46:34.642Z,6.13
2019-01-14T06:47:44.784Z,6.15
2019-01-14T06:48:54.570Z,6.1
2019-01-14T06:50:05.480Z,6.07
2019-01-14T06:51:15.538Z,6.14
2019-01-14T06:52:25.587Z,6.13
2019-01-14T06:53:35.415Z,6.21
2019-01-14T06:54:45.224Z,6.15
2019-01-14T06:55:55.033Z,6.26
2019-01-14T06:57:05.059Z,6.29
2019-01-14T06:58:14.883Z,6.31
2019-01-14T06:59:24.940Z,6.26
2019-01-14T07:00:35.174Z,6.37
2019-01-14T07:01:45.240Z,6.31
2019-01-14T07:02:55.092Z,6.34
2019-01-14T07:04:06.168Z,6.4
2019-01-14T07:05:16.215Z,6.34
2019-01-14T07:06:27.111Z,6.42
2019-01-14T07:07:37.417Z,6.43
2019-01-14T07:08:47.455Z,6.55
2019-01-14T07:09:57.273Z,6.67
2019-01-14T07:11:07.331Z,6.8
2019-01-14T07:12:16.871Z,6.94
2019-01-14T07:13:26.923Z,6.95
2019-01-14T07:14:36.988Z,7.09
2019-01-14T07:15:46.862Z,7.23
2019-01-14T07:16:56.931Z,7.26
2019-01-14T07:18:06.738Z,7.47
2019-01-14T07:19:16.853Z,7.45
2019-01-14T07:20:26.921Z,7.52
2019-01-14T07:21:36.998Z,7.63
2019-01-14T07:22:46.857Z,7.61
2019-01-14T07:23:57.155Z,7.7
2019-01-14T07:25:07.247Z,7.74
2019-01-14T07:26:17.321Z,7.77
2019-01-14T07:27:27.581Z,7.86
2019-01-14T07:28:37.414Z,8.03
2019-01-14T07:29:47.522Z,8.07
2019-01-14T07:30:57.433Z,8.17
2019-01-14T07:32:08.306Z,8.39
2019-01-14T07:33:17.860Z,8.64
2019-01-14T07:34:27.963Z,8.62
2019-01-14T07:35:38.040Z,8.69
2019-01-14T07:36:47.828Z,8.82
2019-01-14T07:37:57.954Z,8.77
2019-01-14T07:39:14.838Z,8.8
2019-01-14T07:40:24.881Z,8.69
2019-01-14T07:41:34.698Z,8.76
2019-01-14T07:42:44.498Z,8.58
2019-01-14T07:43:54.556Z,8.44
2019-01-14T07:45:04.618Z,8.43
2019-01-14T07:46:14.682Z,8.53
2019-01-14T07:47:24.808Z,8.47
2019-01-14T07:48:34.676Z,8.4
2019-01-14T07:49:44.896Z,8.46
2019-01-14T07:50:54.966Z,8.49
2019-01-14T07:52:05.029Z,8.44
2019-01-14T07:53:15.095Z,8.68
2019-01-14T07:54:25.161Z,8.83
2019-01-14T07:55:35.202Z,8.95
2019-01-14T07:56:45.270Z,9.01
2019-01-14T07:57:55.329Z,9.16
2019-01-14T07:59:05.391Z,9.38
2019-01-14T08:00:15.954Z,9.27
2019-01-14T08:01:26.262Z,9.3
2019-01-14T08:02:36.524Z,9.2
2019-01-14T08:03:46.603Z,9.17
2019-01-14T08:04:56.651Z,8.97
2019-01-14T08:06:07.129Z,8.76
2019-01-14T08:07:17.199Z,8.67
2019-01-14T08:08:27.237Z,8.62
2019-01-14T08:09:37.295Z,8.5
2019-01-14T08:10:47.419Z,8.49
2019-01-14T08:11:57.480Z,8.6
2019-01-14T08:13:08.508Z,8.67
2019-01-14T08:14:19.130Z,8.74
2019-01-14T08:15:29.204Z,8.83
2019-01-14T08:16:38.997Z,8.87
2019-01-14T08:17:48.911Z,8.97
2019-01-14T08:18:58.978Z,8.92
2019-01-14T08:20:10.385Z,9.16
2019-01-14T08:21:20.457Z,9.14
2019-01-14T08:22:30.579Z,9.2
2019-01-14T08:23:40.702Z,9.27
2019-01-14T08:24:50.849Z,9.37
2019-01-14T08:26:03.453Z,9.44
2019-01-14T08:27:13.579Z,9.47
2019-01-14T08:28:23.233Z,9.55
2019-01-14T08:29:33.440Z,9.63
2019-01-14T08:30:43.286Z,9.67
2019-01-14T08:31:53.171Z,9.63
2019-01-14T08:33:03.286Z,9.74
2019-01-14T08:34:13.089Z,9.81
2019-01-14T08:35:23.321Z,9.88
2019-01-14T08:36:33.436Z,10.08
2019-01-14T08:37:43.329Z,10.07
2019-01-14T08:38:53.417Z,10.14
2019-01-14T08:40:03.532Z,10.17
2019-01-14T08:41:13.352Z,10.18
2019-01-14T08:42:23.412Z,10.08
2019-01-14T08:43:33.308Z,10.14
2019-01-14T08:44:43.394Z,10.1
2019-01-14T08:45:53.515Z,10.21
2019-01-14T08:47:05.119Z,10.2
2019-01-14T08:48:15.183Z,10.25
2019-01-14T08:49:25.250Z,10.31
2019-01-14T08:50:35.520Z,10.28
2019-01-14T08:51:45.585Z,10.38
2019-01-14T08:52:55.756Z,10.36
2019-01-14T08:54:05.972Z,10.46
2019-01-14T08:55:16.091Z,10.57
2019-01-14T08:56:26.166Z,10.73
2019-01-14T08:57:36.233Z,10.83
2019-01-14T08:58:46.042Z,10.77
2019-01-14T08:59:55.862Z,10.83
2019-01-14T09:01:09.066Z,10.73
2019-01-14T09:02:19.139Z,10.69
2019-01-14T09:03:29.204Z,10.77
2019-01-14T09:04:39.275Z,10.76
2019-01-14T09:05:49.335Z,10.79
2019-01-14T09:06:59.125Z,10.73
2019-01-14T09:08:09.382Z,10.8
2019-01-14T09:09:19.843Z,10.77
2019-01-14T09:10:30.237Z,10.79
2019-01-14T09:11:40.443Z,10.76
2019-01-14T09:12:50.516Z,10.79
2019-01-14T09:14:00.597Z,10.87
2019-01-14T09:15:10.885Z,10.88
2019-01-14T09:16:21.330Z,10.92
2019-01-14T09:17:31.636Z,11.05
2019-01-14T09:18:41.837Z,11.81
2019-01-14T09:19:51.998Z,12.53
2019-01-14T09:21:03.042Z,12.2
2019-01-14T09:22:13.361Z,11.86
2019-01-14T09:23:23.534Z,11.95
2019-01-14T09:24:33.731Z,11.7
2019-01-14T09:25:43.890Z,11.39
2019-01-14T09:26:59.225Z,11.23
2019-01-14T09:28:09.062Z,12.58
2019-01-14T09:29:18.650Z,13.53
2019-01-14T09:30:28.998Z,13.86
2019-01-14T09:31:38.557Z,14.16
2019-01-14T09:32:48.792Z,13.97
2019-01-14T09:33:59.088Z,13.36
2019-01-14T09:35:09.341Z,13.02
2019-01-14T09:36:19.397Z,12.4
2019-01-14T09:37:30.081Z,12.26
2019-01-14T09:38:40.878Z,11.89
2019-01-14T09:39:50.934Z,11.68
2019-01-14T09:41:01.318Z,11.79
2019-01-14T09:42:11.512Z,11.95
2019-01-14T09:43:21.320Z,12.16
2019-01-14T09:44:31.374Z,12.04
2019-01-14T09:45:41.442Z,11.98
2019-01-14T09:46:51.247Z,12.1
2019-01-14T09:48:03.159Z,12.04
2019-01-14T09:49:13.218Z,11.94
2019-01-14T09:50:23.287Z,11.76
2019-01-14T09:51:33.586Z,11.79
2019-01-14T09:52:43.744Z,11.81
2019-01-14T09:53:53.572Z,11.78
2019-01-14T09:55:08.076Z,11.67
2019-01-14T09:56:18.144Z,11.67
2019-01-14T09:57:28.268Z,11.75
2019-01-14T09:58:40.109Z,11.7
2019-01-14T09:59:50.227Z,11.73
2019-01-14T10:01:00.343Z,11.66
2019-01-14T10:02:10.426Z,11.67
2019-01-14T10:03:20.499Z,11.68
2019-01-14T10:04:30.318Z,11.71
2019-01-14T10:05:40.313Z,11.71
2019-01-14T10:06:50.619Z,11.82
2019-01-14T10:08:03.152Z,11.71
2019-01-14T10:09:13.367Z,11.75
2019-01-14T10:10:23.428Z,11.75
2019-01-14T10:11:33.218Z,11.81
2019-01-14T10:12:43.322Z,11.88
2019-01-14T10:13:53.164Z,11.81
2019-01-14T10:15:03.325Z,11.75
2019-01-14T10:16:13.582Z,11.76
2019-01-14T10:17:23.708Z,11.76
2019-01-14T10:18:33.375Z,11.89
2019-01-14T10:19:43.193Z,11.91
2019-01-14T10:20:53.471Z,11.82
2019-01-14T10:22:03.266Z,11.82
2019-01-14T10:23:13.346Z,11.71
2019-01-14T10:24:23.411Z,11.71
2019-01-14T10:25:33.470Z,11.45
2019-01-14T10:26:43.529Z,11.34
2019-01-14T10:27:53.098Z,11.28
2019-01-14T10:29:05.137Z,11.1
2019-01-14T10:30:15.200Z,11.12
2019-01-14T10:31:25.012Z,11.18
2019-01-14T10:32:35.083Z,11.16
2019-01-14T10:33:45.174Z,11.18
2019-01-14T10:34:55.286Z,11.12
2019-01-14T10:36:05.228Z,10.95
2019-01-14T10:37:15.052Z,10.85
2019-01-14T10:38:30.604Z,10.69
2019-01-14T10:39:40.633Z,10.55
2019-01-14T10:40:50.252Z,10.41
2019-01-14T10:42:04.995Z,10.28
2019-01-14T10:43:15.555Z,10.25
2019-01-14T10:44:25.691Z,10.1
2019-01-14T10:45:35.434Z,9.88
2019-01-14T10:46:45.609Z,9.77
2019-01-14T10:47:55.422Z,9.64
2019-01-14T10:49:09.367Z,9.64
2019-01-14T10:50:19.512Z,9.5
2019-01-14T10:51:29.907Z,9.34
2019-01-14T10:52:39.990Z,9.16
2019-01-14T10:53:50.052Z,9.2
2019-01-14T10:55:00.543Z,9.26
2019-01-14T10:56:17.631Z,9.17
2019-01-14T10:57:27.750Z,9.34
2019-01-14T10:58:38.320Z,9.47
2019-01-14T10:59:48.404Z,9.53
2019-01-14T11:00:58.517Z,9.48
2019-01-14T11:02:08.732Z,9.64
2019-01-14T11:03:18.574Z,9.92
2019-01-14T11:04:28.797Z,10.02
2019-01-14T11:05:38.684Z,10.18
2019-01-14T11:06:48.671Z,10.38
2019-01-14T11:07:58.487Z,10.47
2019-01-14T12:08:36.694Z,11.76
2019-01-14T12:09:47.015Z,11.64
2019-01-14T12:10:57.333Z,11.68
2019-01-14T12:12:08.610Z,11.56
2019-01-14T12:13:18.662Z,11.52
2019-01-14T12:14:28.741Z,11.51
2019-01-14T12:15:38.547Z,11.39
2019-01-14T12:16:48.616Z,11.39
2019-01-14T12:17:58.719Z,11.43
2019-01-14T12:19:08.790Z,11.52
2019-01-14T12:20:18.902Z,11.71
2019-01-14T12:21:29.193Z,11.75
2019-01-14T12:22:39.936Z,11.97
2019-01-14T12:23:50.448Z,12.13
2019-01-14T12:25:00.331Z,12.28
2019-01-14T12:26:10.361Z,12.41
2019-01-14T12:27:20.476Z,12.48
2019-01-14T12:28:30.745Z,12.73
2019-01-14T12:29:40.819Z,13.47
2019-01-14T12:30:50.953Z,14.44
2019-01-14T12:32:01.070Z,15.02
2019-01-14T12:33:11.383Z,15.51
2019-01-14T12:34:21.692Z,16.16
2019-01-14T12:35:32.031Z,16.63
2019-01-14T12:36:42.317Z,16.59
2019-01-14T12:37:52.408Z,15.63
2019-01-14T12:39:02.484Z,15
2019-01-14T12:40:12.551Z,14.61
2019-01-14T12:41:22.813Z,14.23
2019-01-14T12:42:32.854Z,13.69
2019-01-14T12:43:42.412Z,13.36
2019-01-14T12:44:52.467Z,12.95
2019-01-14T12:46:02.790Z,12.73
2019-01-14T12:47:13.224Z,12.47
2019-01-14T12:48:25.304Z,12.19
2019-01-14T12:49:35.890Z,11.94
2019-01-14T12:50:45.952Z,11.79
2019-01-14T12:51:56.016Z,11.6
2019-01-14T12:53:06.293Z,11.42
2019-01-14T12:54:16.719Z,11.16
2019-01-14T12:55:26.841Z,10.87
2019-01-14T12:56:37.128Z,10.65
2019-01-14T12:57:46.946Z,10.49
2019-01-14T12:58:57.023Z,10.36
2019-01-14T13:00:07.559Z,10.23
2019-01-14T13:01:18.076Z,10.21
2019-01-14T13:02:28.173Z,10.14
2019-01-14T13:03:37.994Z,9.99
2019-01-14T13:04:48.211Z,9.82
2019-01-14T13:05:58.303Z,9.67
2019-01-14T13:07:08.659Z,9.55
2019-01-14T13:08:18.524Z,9.32
2019-01-14T13:09:31.718Z,9.21
2019-01-14T13:10:42.229Z,9.01
2019-01-14T13:11:52.893Z,8.77
2019-01-14T13:13:03.003Z,8.85
2019-01-14T13:14:13.304Z,8.68
2019-01-14T13:15:23.587Z,8.61
2019-01-14T13:16:34.863Z,8.46
2019-01-14T13:47:09.807Z,8.32
2019-01-14T13:48:20.323Z,8.4
2019-01-14T13:49:30.370Z,8.42
2019-01-14T13:50:40.855Z,8.44
2019-01-14T13:51:51.855Z,8.43
2019-01-14T13:53:02.066Z,8.46
2019-01-14T13:54:12.548Z,8.49
2019-01-14T13:55:23.627Z,8.49
2019-01-14T13:56:34.554Z,8.49
2019-01-14T13:57:45.296Z,8.43
2019-01-14T13:58:55.982Z,8.44
2019-01-14T14:00:06.275Z,8.31
2019-01-14T14:01:17.365Z,8.17
2019-01-14T14:02:28.745Z,8.21
2019-01-14T14:03:40.291Z,8.19
2019-01-14T14:04:50.162Z,8.16
2019-01-14T14:06:01.498Z,8.16
2019-01-14T14:07:13.458Z,8.28
2019-01-14T14:08:23.558Z,8.11
2019-01-14T14:09:40.999Z,8.03
2019-01-14T14:10:51.978Z,8.11
2019-01-14T14:12:02.255Z,8.04
2019-01-14T14:13:12.704Z,8.06
2019-01-14T14:14:24.324Z,7.99
2019-01-14T14:15:36.148Z,7.93
2019-01-14T14:16:49.426Z,8.01
2019-01-14T14:18:01.634Z,7.99
2019-01-14T14:19:12.273Z,8.11
2019-01-14T14:20:23.964Z,8.11
2019-01-14T14:21:35.006Z,8.01
2019-01-14T14:22:45.632Z,7.98
2019-01-14T14:23:56.288Z,7.91
2019-01-14T14:25:06.794Z,7.96
2019-01-14T14:26:19.729Z,7.99
2019-01-14T14:27:30.470Z,7.95
2019-01-14T14:28:40.798Z,7.92
2019-01-14T14:29:51.318Z,7.74
2019-01-14T14:31:01.607Z,7.71
2019-01-14T14:32:12.309Z,7.67
2019-01-14T14:33:22.308Z,7.7
2019-01-14T14:34:32.621Z,7.73
2019-01-14T14:35:44.174Z,7.63
2019-01-14T14:36:55.058Z,7.58
2019-01-14T14:38:08.634Z,7.59
2019-01-14T14:39:19.032Z,7.52
2019-01-14T14:40:28.786Z,7.54
2019-01-14T14:41:40.618Z,7.54
2019-01-14T14:43:06.404Z,7.45
2019-01-14T14:44:19.004Z,7.39
2019-01-14T14:45:31.033Z,7.34
2019-01-14T14:46:42.566Z,7.27
2019-01-14T14:47:53.090Z,7.29
2019-01-14T14:49:05.211Z,7.27
2019-01-14T14:50:16.487Z,7.21
2019-01-14T14:51:27.001Z,7.22
2019-01-14T14:52:37.926Z,7.23
2019-01-14T14:53:49.262Z,7.13
2019-01-14T14:54:59.420Z,7.16
2019-01-14T14:56:09.784Z,7.11
2019-01-14T14:57:20.762Z,7.11
2019-01-14T14:58:31.568Z,7.08
2019-01-14T14:59:42.280Z,7.05
2019-01-14T15:00:53.435Z,7.05
2019-01-14T15:02:04.379Z,7.05
2019-01-14T15:03:14.723Z,7.08
2019-01-14T15:04:25.741Z,7.04
2019-01-14T15:05:36.287Z,7.13
2019-01-14T15:06:46.947Z,6.98
2019-01-14T15:07:58.414Z,7
2019-01-14T15:09:10.971Z,6.95
2019-01-14T15:10:22.440Z,6.98
2019-01-14T15:11:33.135Z,7
2019-01-14T15:12:43.736Z,6.98
2019-01-14T15:13:53.860Z,7
2019-01-14T15:15:04.084Z,7
2019-01-14T15:16:14.970Z,6.9
2019-01-14T15:17:26.457Z,6.93
2019-01-14T15:18:37.178Z,6.83
2019-01-14T15:19:47.707Z,6.78
2019-01-14T15:20:58.580Z,6.8
2019-01-14T15:22:09.250Z,6.9
2019-01-14T15:23:20.188Z,6.68
2019-01-14T15:24:31.367Z,6.67
2019-01-14T15:25:41.875Z,6.7
2019-01-14T15:26:51.900Z,6.73
2019-01-14T15:28:03.451Z,6.68
2019-01-14T15:29:13.903Z,6.67
2019-01-14T15:30:24.988Z,6.67
2019-01-14T15:31:35.751Z,6.65
2019-01-14T15:32:46.091Z,6.58
2019-01-14T15:33:57.454Z,6.61
2019-01-14T15:35:07.966Z,6.58
2019-01-14T15:36:20.053Z,6.51
2019-01-14T15:37:31.911Z,6.61
2019-01-14T15:38:42.956Z,6.51
2019-01-14T15:39:53.536Z,6.57
2019-01-14T15:41:11.729Z,6.52
2019-01-14T15:42:26.677Z,6.47
2019-01-14T15:43:37.992Z,6.46
2019-01-14T15:44:49.988Z,6.4
2019-01-14T15:46:04.214Z,6.43
2019-01-14T15:47:17.132Z,6.44
2019-01-14T15:48:29.619Z,6.47
2019-01-14T15:49:40.371Z,6.42
2019-01-14T15:50:52.884Z,6.44
2019-01-14T15:52:06.064Z,6.36
2019-01-14T15:53:20.020Z,6.29
2019-01-14T15:54:31.612Z,6.39
2019-01-14T15:55:46.950Z,6.4
2019-01-14T15:56:59.916Z,6.37
2019-01-14T15:58:14.118Z,6.2
2019-01-14T15:59:27.481Z,6.24
2019-01-14T16:00:39.224Z,6.2
2019-01-14T16:01:51.651Z,6.03
2019-01-14T16:03:05.044Z,5.92
2019-01-14T16:04:17.278Z,5.78
2019-01-14T16:05:29.238Z,5.7
2019-01-14T16:06:38.838Z,5.64
2019-01-14T16:07:48.441Z,5.59
2019-01-14T16:08:58.507Z,5.54
2019-01-14T16:10:15.506Z,5.51
2019-01-14T16:11:25.328Z,5.36
2019-01-14T16:12:35.168Z,5.48
2019-01-14T16:13:45.263Z,5.44
2019-01-14T16:14:55.337Z,5.36
2019-01-14T16:16:06.774Z,5.39
2019-01-14T16:17:16.621Z,5.3
2019-01-14T16:18:26.465Z,5.39
2019-01-14T16:19:36.544Z,5.31
2019-01-14T16:20:46.427Z,5.26
2019-01-14T16:21:56.503Z,5.3
2019-01-14T16:23:06.838Z,5.31
2019-01-14T16:24:16.925Z,5.31
2019-01-14T16:25:27.012Z,5.3
2019-01-14T16:26:36.945Z,5.28
2019-01-14T16:27:47.075Z,5.28
2019-01-14T16:28:56.880Z,5.24
2019-01-14T16:30:06.963Z,5.28
2019-01-14T16:31:17.029Z,5.3
2019-01-14T16:32:27.099Z,5.31
2019-01-14T16:33:37.199Z,5.33
2019-01-14T16:34:47.545Z,5.31
2019-01-14T16:35:58.080Z,5.34
2019-01-14T16:37:08.351Z,5.24
2019-01-14T16:38:18.493Z,5.23
2019-01-14T16:39:28.977Z,5.15
2019-01-14T16:40:39.055Z,5.26
2019-01-14T16:41:49.215Z,5.18
2019-01-14T16:42:59.331Z,5.2
2019-01-14T16:44:09.829Z,5.13
2019-01-14T16:45:19.661Z,5.15
2019-01-14T16:46:30.217Z,5.08
2019-01-14T16:47:41.027Z,5.05
2019-01-14T16:48:50.857Z,5.02
2019-01-14T16:50:01.274Z,5.02
2019-01-14T16:51:11.337Z,5.03
2019-01-14T16:52:20.887Z,5.02
2019-01-14T16:53:30.781Z,4.98
2019-01-14T16:54:40.624Z,5.09
2019-01-14T16:55:50.445Z,5.09
2019-01-14T16:57:00.556Z,5.1
2019-01-14T16:58:10.364Z,5.21
2019-01-14T16:59:20.456Z,5.15
2019-01-14T17:00:30.553Z,5.18
2019-01-14T17:01:40.731Z,5.2
2019-01-14T17:02:50.812Z,5.18
2019-01-14T17:04:00.912Z,5.23
2019-01-14T17:05:16.869Z,5.13
2019-01-14T17:06:26.989Z,5.09
2019-01-14T17:07:37.121Z,5.1
2019-01-14T17:08:46.917Z,5.1
2019-01-14T17:09:57.021Z,5.06
2019-01-14T17:11:06.874Z,5.09
2019-01-14T17:12:16.968Z,5.12
2019-01-14T17:13:27.109Z,5.13
2019-01-14T17:14:36.982Z,5.13
2019-01-14T17:15:46.805Z,5.09
2019-01-14T17:16:56.873Z,5.13
2019-01-14T17:18:07.024Z,5.12
2019-01-14T17:19:17.791Z,5.12
2019-01-14T17:20:28.112Z,5.18
2019-01-14T17:21:38.058Z,5.16
2019-01-14T17:22:48.148Z,5.02
2019-01-14T17:23:58.275Z,5.12
2019-01-14T17:25:08.425Z,5.2
2019-01-14T17:26:19.157Z,5.15
2019-01-14T17:27:29.269Z,5.27
2019-01-14T17:28:39.376Z,5.21
2019-01-14T17:29:49.912Z,5.3
2019-01-14T17:31:01.457Z,5.36
2019-01-14T17:32:11.790Z,5.39
2019-01-14T17:33:21.771Z,5.45